Aurora, WV

12:37 PM EDT on August 28, 2016 (GMT -0400)
1 1/2 Mi. South of Terra Alta, Snowy Creek WV | | Change Station

Elev 2842 ft 39.40 °N, 79.58 °W | Updated 5 seconds ago

Scattered Clouds
Scattered Clouds
90.5 °F
Feels Like 96 °F
N
1.7
Wind Variable Wind from South

Today
High -- | Low -- °F
--% Chance of Precip.
Yesterday
High -- | Low -- °F
Precip. -- in
Pressure 30.22 in
Visibility 10.0 miles
Clouds Scattered Clouds 4500 ft
Scattered Clouds 20000 ft
Heat Index 96 °F
Dew Point 70 °F
Humidity 51%
Rainfall 0.00 in
Snow Depth Not available.
6:43 AM 7:54 PM
Waning Crescent, 14% visible
METAR KMGW 281553Z 25005KT 10SM SCT045 SCT200 30/21 A3025 RMK AO2 SLP233 T03000211
Pressure 30.22 in
Visibility 10.0 miles
Clouds Scattered Clouds 4500 ft
Scattered Clouds 20000 ft
Heat Index 96 °F
Dew Point 70 °F
Humidity 51%
Rainfall 0.00 in
Snow Depth Not available.
6:43 AM 7:54 PM
Waning Crescent, 14% visible
METAR KMGW 281553Z 25005KT 10SM SCT045 SCT200 30/21 A3025 RMK AO2 SLP233 T03000211

10-Day Weather Forecast

Almanac

Astronomy

Aug. 28, 2016 Rise Set
Actual Time
Civil Twilight
Nautical Twilight
Astronomical Twilight
Moon
Length of Visible Light
Length of Day
Tomorrow will be .
, % of the Moon is Illuminated

Today's Extremes

State Highs State Lows

Community

WunderPhotos

Upload Photos

1,935,621 photos uploaded!

WunderBlog® & News

Nearby

Air Quality

  Air Quality AQ Index Pollutant
Not available.

Snow Depth

Station Depth Elevation

Earthquake Activity

City Distance Mag. Time & Date
Minimum magnitude displayed is 2.5.

Coastal Water Temperatures

Place Temperature

Stations

Nearby Weather Stations

Station Location Temp. Windchill Dew Point Humidity Wind Precip. Elev Updated Type
                   

Watches & Warnings

There are currently no watches in effect.